createdAt,value
2022-10-17T00:10:29.977Z,15.47
2022-10-17T00:18:16.794Z,15.32
2022-10-17T00:22:02.484Z,15.34
2022-10-17T00:36:11.243Z,15.40
2022-10-17T00:49:31.927Z,15.22
2022-10-17T01:07:19.086Z,15.23
2022-10-17T01:19:30.694Z,15.26
2022-10-17T01:53:56.936Z,15.33
2022-10-17T02:11:51.024Z,14.65
2022-10-17T02:39:30.773Z,14.34
2022-10-17T03:03:03.824Z,13.95
2022-10-17T03:06:04.835Z,14.00
2022-10-17T03:08:45.283Z,14.07
2022-10-17T03:11:31.831Z,14.04
2022-10-17T03:14:14.342Z,13.98
2022-10-17T03:16:41.638Z,14.04
2022-10-17T03:19:28.896Z,13.92
2022-10-17T03:22:09.358Z,14.03
2022-10-17T03:24:36.993Z,13.95
2022-10-17T03:27:03.905Z,13.96
2022-10-17T03:29:31.033Z,14.04
2022-10-17T03:31:58.233Z,14.07
2022-10-17T03:34:25.367Z,14.12
2022-10-17T03:36:52.420Z,14.10
2022-10-17T03:39:19.383Z,14.06
2022-10-17T03:41:46.852Z,14.08
2022-10-17T03:44:14.854Z,14.11
2022-10-17T03:46:42.029Z,13.99
2022-10-17T03:49:28.841Z,14.01
2022-10-17T03:52:17.236Z,14.04
2022-10-17T03:54:45.304Z,13.87
2022-10-17T03:57:14.004Z,13.90
2022-10-17T03:59:40.978Z,13.73
2022-10-17T04:02:33.842Z,13.92
2022-10-17T04:05:36.900Z,13.79
2022-10-17T04:08:37.888Z,13.69
2022-10-17T04:11:42.888Z,13.79
2022-10-17T04:14:43.871Z,13.82
2022-10-17T04:17:11.925Z,13.76
2022-10-17T04:19:58.862Z,13.76
2022-10-17T04:22:39.576Z,13.94
2022-10-17T04:25:06.592Z,14.14
2022-10-17T04:27:36.030Z,14.30
2022-10-17T04:30:03.149Z,14.51
2022-10-17T04:32:33.313Z,14.48
2022-10-17T04:35:09.020Z,14.48
2022-10-17T04:37:36.711Z,14.53
2022-10-17T04:40:16.904Z,14.55
2022-10-17T04:42:53.240Z,14.76
2022-10-17T04:45:24.332Z,14.88
2022-10-17T04:47:57.604Z,14.92
2022-10-17T04:50:25.178Z,14.99
2022-10-17T04:53:11.986Z,14.99
2022-10-17T04:55:39.612Z,14.95
2022-10-17T04:58:06.660Z,15.08
2022-10-17T05:00:33.865Z,15.07
2022-10-17T05:03:25.935Z,15.22
2022-10-17T05:06:07.385Z,15.06
2022-10-17T05:08:34.972Z,15.20
2022-10-17T05:11:32.932Z,15.28
2022-10-17T05:14:33.872Z,15.31
2022-10-17T05:17:14.325Z,15.41
2022-10-17T05:20:00.897Z,15.43
2022-10-17T05:22:42.526Z,15.10
2022-10-17T05:25:11.401Z,15.27
2022-10-17T05:27:58.920Z,15.26
2022-10-17T05:30:39.462Z,15.39
2022-10-17T05:33:08.412Z,15.33
2022-10-17T05:35:36.068Z,15.35
2022-10-17T05:38:03.194Z,15.45
2022-10-17T05:40:32.506Z,15.40
2022-10-17T05:42:59.469Z,15.28
2022-10-17T05:45:26.519Z,15.15
2022-10-17T05:48:13.929Z,15.13
2022-10-17T05:50:58.832Z,14.91
2022-10-17T05:53:25.871Z,15.11
2022-10-17T05:56:00.201Z,15.23
2022-10-17T06:01:26.464Z,15.12
2022-10-17T06:04:13.930Z,15.15
2022-10-17T06:07:14.988Z,15.31
2022-10-17T06:09:55.364Z,15.35
2022-10-17T06:12:41.916Z,15.45
2022-10-17T06:15:42.937Z,15.61
2022-10-17T06:18:43.948Z,15.75
2022-10-17T06:21:45.965Z,15.79
2022-10-17T06:24:29.481Z,15.78
2022-10-17T06:26:57.803Z,15.72
2022-10-17T06:29:24.668Z,15.77
2022-10-17T06:31:52.271Z,15.84
2022-10-17T06:34:20.092Z,15.86
2022-10-17T06:36:47.693Z,16.00
2022-10-17T06:39:15.167Z,16.13
2022-10-17T06:41:53.844Z,16.35
2022-10-17T06:44:22.400Z,16.55
2022-10-17T06:46:56.558Z,16.71
2022-10-17T06:49:23.489Z,16.78
2022-10-17T06:52:10.580Z,16.89
2022-10-17T06:54:46.329Z,16.88
2022-10-17T06:57:39.476Z,16.84
2022-10-17T07:00:35.774Z,16.79
2022-10-17T07:03:23.001Z,16.64
2022-10-17T07:06:25.043Z,16.75
2022-10-17T07:09:10.576Z,16.83
2022-10-17T07:11:37.520Z,16.94
2022-10-17T07:14:04.333Z,16.94
2022-10-17T07:16:31.266Z,17.00
2022-10-17T07:19:28.006Z,16.98
2022-10-17T07:22:28.958Z,17.12
2022-10-17T07:25:09.916Z,17.23
2022-10-17T07:27:43.735Z,17.33
2022-10-17T07:30:11.371Z,17.38
2022-10-17T07:32:40.540Z,17.42
2022-10-17T07:35:09.381Z,17.62
2022-10-17T07:37:36.406Z,17.65
2022-10-17T07:40:04.177Z,17.51
2022-10-17T07:42:31.168Z,17.60
2022-10-17T07:44:58.612Z,17.51
2022-10-17T07:47:47.993Z,17.57
2022-10-17T07:50:49.000Z,17.78
2022-10-17T07:53:29.626Z,17.96
2022-10-17T07:56:30.998Z,18.14
2022-10-17T07:59:09.551Z,17.87
2022-10-17T08:01:57.023Z,18.29
2022-10-17T08:04:58.036Z,18.43
2022-10-17T08:07:59.030Z,18.59
2022-10-17T08:10:39.582Z,18.00
2022-10-17T08:13:06.459Z,18.35
2022-10-17T08:15:33.377Z,18.68
2022-10-17T08:18:20.113Z,18.91
2022-10-17T08:21:01.290Z,18.83
2022-10-17T08:23:28.610Z,18.04
2022-10-17T08:25:58.614Z,17.78
2022-10-17T08:28:25.528Z,18.17
2022-10-17T08:30:52.286Z,18.03
2022-10-17T08:33:28.958Z,17.72
2022-10-17T08:35:55.766Z,18.31
2022-10-17T08:38:44.033Z,18.36
2022-10-17T08:42:02.036Z,18.84
2022-10-17T08:45:21.075Z,18.75
2022-10-17T08:48:02.948Z,18.64
2022-10-17T08:50:30.003Z,18.85
2022-10-17T08:53:21.060Z,18.16
2022-10-17T08:56:07.198Z,18.50
2022-10-17T08:58:36.991Z,18.83
2022-10-17T09:01:03.863Z,18.43
2022-10-17T09:03:51.055Z,19.40
2022-10-17T09:06:37.405Z,20.28
2022-10-17T09:09:20.442Z,20.35
2022-10-17T09:11:50.402Z,19.63
2022-10-17T09:14:22.159Z,19.13
2022-10-17T09:16:58.216Z,20.00
2022-10-17T09:19:50.090Z,19.46
2022-10-17T09:22:34.865Z,20.62
2022-10-17T09:25:24.063Z,19.20
2022-10-17T09:28:10.925Z,18.73
2022-10-17T09:30:45.551Z,19.89
2022-10-17T09:33:49.799Z,20.35
2022-10-17T09:36:42.007Z,21.27
2022-10-17T09:39:17.867Z,21.19
2022-10-17T09:41:48.329Z,20.85
2022-10-17T09:44:34.957Z,21.54
2022-10-17T09:47:25.874Z,21.25
2022-10-17T09:50:35.127Z,21.66
2022-10-17T09:53:18.722Z,22.06
2022-10-17T09:55:50.513Z,22.06
2022-10-17T09:58:17.351Z,22.48
2022-10-17T10:00:45.436Z,22.06
2022-10-17T10:03:39.163Z,20.45
2022-10-17T10:06:40.099Z,21.69
2022-10-17T10:09:42.149Z,21.85
2022-10-17T10:12:24.198Z,22.38
2022-10-17T10:14:54.680Z,22.30
2022-10-17T10:17:34.784Z,22.65
2022-10-17T10:20:40.089Z,23.08
2022-10-17T10:23:41.178Z,22.95
2022-10-17T10:26:23.400Z,22.34
2022-10-17T10:28:53.445Z,22.11
2022-10-17T10:31:26.388Z,22.60
2022-10-17T10:33:56.785Z,22.51
2022-10-17T10:36:24.436Z,23.02
2022-10-17T10:38:57.692Z,22.99
2022-10-17T10:41:27.826Z,20.56
2022-10-17T10:44:15.101Z,20.56
2022-10-17T10:47:14.444Z,20.65
2022-10-17T10:49:41.733Z,20.57
2022-10-17T10:52:15.013Z,20.65
2022-10-17T10:55:12.151Z,21.06
2022-10-17T10:58:16.196Z,21.67
2022-10-17T11:00:57.884Z,21.50
2022-10-17T11:03:49.142Z,22.07
2022-10-17T11:06:53.104Z,21.41
2022-10-17T11:10:03.127Z,22.23
2022-10-17T11:13:17.134Z,21.41
2022-10-17T11:16:00.511Z,21.38
2022-10-17T11:18:49.108Z,21.35
2022-10-17T11:21:55.681Z,22.06
2022-10-17T11:24:28.618Z,22.75
2022-10-17T11:27:00.410Z,21.67
2022-10-17T11:29:36.906Z,21.60
2022-10-17T11:32:13.597Z,22.09
2022-10-17T11:35:03.156Z,22.36
2022-10-17T11:37:49.031Z,22.64
2022-10-17T11:40:24.484Z,22.79
2022-10-17T11:43:26.212Z,23.14
2022-10-17T11:46:27.247Z,22.40
2022-10-17T11:49:32.969Z,21.84
2022-10-17T11:52:56.146Z,21.77
2022-10-17T11:55:25.579Z,21.72
2022-10-17T11:58:09.166Z,21.88
2022-10-17T12:01:28.168Z,22.44
2022-10-17T12:04:43.747Z,22.77
2022-10-17T12:08:01.396Z,22.03
2022-10-17T12:10:34.072Z,21.76
2022-10-17T12:13:39.179Z,21.76
2022-10-17T12:16:21.959Z,22.42
2022-10-17T12:19:01.098Z,22.47
2022-10-17T12:21:31.368Z,22.47
2022-10-17T12:24:19.195Z,22.35
2022-10-17T12:27:19.506Z,22.19
2022-10-17T12:30:12.358Z,22.71
2022-10-17T12:33:07.119Z,22.76
2022-10-17T12:35:55.230Z,23.03
2022-10-17T12:38:35.669Z,23.09
2022-10-17T12:41:23.261Z,23.26
2022-10-17T12:44:29.404Z,23.34
2022-10-17T12:48:03.216Z,23.09
2022-10-17T12:51:35.267Z,22.72
2022-10-17T12:54:16.419Z,22.19
2022-10-17T12:56:47.869Z,22.10
2022-10-17T12:59:21.722Z,22.45
2022-10-17T13:02:12.214Z,22.70
2022-10-17T13:05:19.219Z,22.73
2022-10-17T13:08:22.398Z,22.74
2022-10-17T13:10:55.132Z,22.99
2022-10-17T13:13:48.954Z,23.10
2022-10-17T13:16:28.221Z,23.21
2022-10-17T13:18:55.300Z,22.71
2022-10-17T13:21:22.369Z,22.58
2022-10-17T13:23:51.247Z,22.81
2022-10-17T13:26:22.015Z,22.82
2022-10-17T13:29:05.554Z,22.67
2022-10-17T13:31:34.878Z,22.79
2022-10-17T13:34:32.213Z,22.98
2022-10-17T13:37:14.289Z,23.10
2022-10-17T13:40:24.830Z,23.16
2022-10-17T13:43:40.252Z,23.14
2022-10-17T13:46:43.214Z,22.88
2022-10-17T13:49:50.497Z,22.78
2022-10-17T13:52:53.227Z,22.65
2022-10-17T13:55:33.846Z,22.72
2022-10-17T13:58:14.912Z,22.72
2022-10-17T14:00:42.242Z,23.05
2022-10-17T14:03:47.062Z,23.05
2022-10-17T14:06:54.244Z,22.92
2022-10-17T14:09:55.316Z,22.81
2022-10-17T14:12:35.755Z,22.62
2022-10-17T14:15:11.231Z,23.00
2022-10-17T14:17:39.611Z,22.88
2022-10-17T14:20:40.801Z,22.63
2022-10-17T14:23:20.871Z,22.90
2022-10-17T14:25:42.324Z,22.98
2022-10-17T14:28:11.158Z,22.91
2022-10-17T14:30:57.131Z,22.58
2022-10-17T14:33:49.682Z,22.55
2022-10-17T14:36:55.315Z,22.61
2022-10-17T14:39:56.359Z,22.79
2022-10-17T14:42:57.310Z,22.80
2022-10-17T14:45:59.289Z,22.72
2022-10-17T14:49:05.305Z,22.75
2022-10-17T14:52:17.975Z,22.79
2022-10-17T14:55:05.292Z,22.64
2022-10-17T14:57:46.273Z,22.51
2022-10-17T15:00:33.386Z,22.59
2022-10-17T15:03:34.375Z,22.53
2022-10-17T15:06:37.310Z,22.63
2022-10-17T15:09:17.743Z,22.57
2022-10-17T15:12:04.311Z,22.50
2022-10-17T15:14:45.231Z,22.46
2022-10-17T15:20:43.276Z,22.16
2022-10-17T15:23:23.870Z,22.10
2022-10-17T15:25:50.807Z,22.02
2022-10-17T15:28:17.661Z,22.01
2022-10-17T15:30:44.402Z,21.99
2022-10-17T15:33:31.282Z,21.97
2022-10-17T15:36:22.983Z,21.86
2022-10-17T15:38:50.638Z,21.82
2022-10-17T15:41:17.507Z,21.72
2022-10-17T15:44:04.346Z,21.62
2022-10-17T15:46:44.930Z,21.45
2022-10-17T15:49:13.466Z,21.39
2022-10-17T15:51:40.783Z,21.42
2022-10-17T15:54:28.340Z,21.44
2022-10-17T15:57:32.589Z,21.29
2022-10-17T16:00:23.862Z,21.10
2022-10-17T16:02:50.759Z,20.97
2022-10-17T16:05:29.343Z,20.86
2022-10-17T16:07:57.502Z,20.71
2022-10-17T16:10:44.363Z,20.57
2022-10-17T16:13:38.499Z,20.45
2022-10-17T16:16:19.308Z,20.30
2022-10-17T16:18:46.341Z,20.17
2022-10-17T16:21:14.994Z,20.11
2022-10-17T16:23:42.284Z,20.13
2022-10-17T16:26:09.699Z,19.98
2022-10-17T16:28:36.686Z,19.82
2022-10-17T16:31:36.357Z,19.71
2022-10-17T16:34:38.351Z,19.56
2022-10-17T16:37:39.331Z,19.40
2022-10-17T16:40:40.360Z,19.24
2022-10-17T16:43:43.316Z,19.10
2022-10-17T16:46:24.449Z,18.99
2022-10-17T16:48:51.332Z,18.90
2022-10-17T16:51:19.150Z,18.87
2022-10-17T16:54:06.419Z,18.84
2022-10-17T16:57:07.331Z,18.80
2022-10-17T16:59:47.806Z,18.79
2022-10-17T17:02:17.577Z,18.78
2022-10-17T17:04:47.348Z,18.81
2022-10-17T17:07:14.380Z,18.88
2022-10-17T17:09:41.424Z,18.94
2022-10-17T17:12:08.296Z,18.90
2022-10-17T17:14:35.290Z,19.03
2022-10-17T17:17:36.944Z,18.85
2022-10-17T17:20:38.541Z,18.88
2022-10-17T17:23:18.886Z,19.03
2022-10-17T17:25:46.134Z,18.90
2022-10-17T17:28:33.452Z,18.66
2022-10-17T17:31:35.393Z,18.45
2022-10-17T17:34:24.742Z,18.30
2022-10-17T17:36:51.644Z,18.20
2022-10-17T17:39:38.412Z,18.08
2022-10-17T17:42:39.375Z,18.00
2022-10-17T17:45:19.994Z,17.98
2022-10-17T17:47:46.743Z,18.06
2022-10-17T17:50:13.651Z,18.09
2022-10-17T17:52:42.193Z,18.12
2022-10-17T17:55:29.390Z,18.03
2022-10-17T17:58:09.922Z,17.97
2022-10-17T18:00:36.964Z,17.95
2022-10-17T18:03:04.007Z,17.90
2022-10-17T18:05:31.370Z,17.85
2022-10-17T18:07:58.679Z,17.78
2022-10-17T18:10:46.593Z,17.73
2022-10-17T18:13:26.964Z,17.75
2022-10-17T18:16:23.426Z,17.84
2022-10-17T18:19:06.889Z,17.80
2022-10-17T18:21:35.015Z,17.77
2022-10-17T18:24:02.469Z,17.76
2022-10-17T18:26:29.406Z,17.90
2022-10-17T18:29:18.478Z,17.75
2022-10-17T18:32:19.650Z,17.50
2022-10-17T18:34:59.838Z,17.43
2022-10-17T18:37:26.703Z,17.41
2022-10-17T18:40:13.480Z,17.38
2022-10-17T18:43:14.619Z,17.50
2022-10-17T18:48:44.427Z,17.32
2022-10-17T18:51:12.179Z,17.16
2022-10-17T18:54:00.472Z,17.04
2022-10-17T18:56:50.751Z,17.04
2022-10-17T18:59:18.584Z,17.07
2022-10-17T19:02:05.601Z,16.92
2022-10-17T19:05:06.558Z,16.91
2022-10-17T19:07:53.487Z,16.90
2022-10-17T19:10:34.259Z,16.84
2022-10-17T19:13:01.506Z,16.88
2022-10-17T19:15:48.480Z,16.92
2022-10-17T19:18:49.484Z,16.88
2022-10-17T19:21:29.950Z,16.83
2022-10-17T19:24:01.700Z,16.86
2022-10-17T19:26:29.786Z,16.71
2022-10-17T19:29:16.459Z,16.75
2022-10-17T19:32:20.612Z,16.82
2022-10-17T19:35:06.156Z,16.74
2022-10-17T19:37:43.250Z,16.70
2022-10-17T19:40:25.266Z,16.77
2022-10-17T19:43:12.988Z,16.71
2022-10-17T19:46:01.088Z,16.71
2022-10-17T19:48:51.761Z,16.69
2022-10-17T19:51:35.591Z,16.61
2022-10-17T19:57:29.469Z,16.58
2022-10-17T20:00:02.273Z,16.64
2022-10-17T20:02:38.703Z,16.89
2022-10-17T20:05:18.449Z,15.26
2022-10-17T20:07:50.712Z,16.64
2022-10-17T20:10:20.154Z,16.61
2022-10-17T20:12:50.699Z,16.51
2022-10-17T20:15:30.712Z,16.67
2022-10-17T20:18:33.708Z,16.50
2022-10-17T20:21:15.987Z,16.74
2022-10-17T20:23:43.854Z,17.01
2022-10-17T20:26:38.177Z,16.79
2022-10-17T20:29:31.214Z,16.58
2022-10-17T20:32:12.887Z,16.62
2022-10-17T20:35:01.541Z,16.74
2022-10-17T20:38:06.977Z,16.64
2022-10-17T20:40:47.999Z,16.54
2022-10-17T20:43:18.075Z,16.57
2022-10-17T20:45:51.220Z,16.47
2022-10-17T20:48:18.713Z,16.27
2022-10-17T20:50:49.008Z,16.35
2022-10-17T20:53:36.030Z,16.39
2022-10-17T20:56:37.487Z,16.37
2022-10-17T20:59:20.566Z,16.44
2022-10-17T21:02:10.864Z,16.45
2022-10-17T21:04:58.173Z,16.46
2022-10-17T21:07:28.081Z,16.59
2022-10-17T21:09:56.172Z,16.27
2022-10-17T21:12:31.330Z,16.20
2022-10-17T21:15:30.582Z,16.00
2022-10-17T21:18:11.189Z,15.91
2022-10-17T21:20:38.238Z,15.87
2022-10-17T21:23:05.851Z,15.84
2022-10-17T21:25:53.524Z,15.77
2022-10-17T21:28:55.642Z,15.65
2022-10-17T21:31:37.743Z,15.76
2022-10-17T21:34:19.560Z,15.48
2022-10-17T21:37:13.906Z,15.35
2022-10-17T21:39:57.334Z,15.38
2022-10-17T21:42:26.285Z,15.39
2022-10-17T21:44:53.217Z,15.72
2022-10-17T21:48:11.145Z,15.86
2022-10-17T21:50:47.041Z,15.96
2022-10-17T21:53:14.093Z,15.92
2022-10-17T21:56:01.541Z,15.68
2022-10-17T21:58:43.505Z,15.61
2022-10-17T22:01:15.297Z,15.55
2022-10-17T22:03:45.882Z,15.51
2022-10-17T22:09:02.268Z,15.51
2022-10-17T22:11:30.901Z,15.65
2022-10-17T22:14:20.570Z,15.77
2022-10-17T22:17:01.753Z,15.87
2022-10-17T22:19:28.635Z,15.98
2022-10-17T22:22:17.705Z,15.82
2022-10-17T22:25:18.576Z,15.72
2022-10-17T22:28:12.741Z,15.34
2022-10-17T22:31:08.041Z,15.20
2022-10-17T22:33:36.127Z,15.30
2022-10-17T22:36:12.583Z,15.49
2022-10-17T22:38:42.325Z,15.39
2022-10-17T22:41:09.620Z,15.21
2022-10-17T22:43:36.915Z,15.15
2022-10-17T22:46:05.154Z,15.10
2022-10-17T22:48:32.512Z,15.00
2022-10-17T22:51:08.318Z,14.90
2022-10-17T22:53:43.752Z,14.90
2022-10-17T22:56:46.938Z,14.89
2022-10-17T22:59:47.666Z,14.83
2022-10-17T23:02:47.670Z,14.80
2022-10-17T23:05:31.291Z,14.89
2022-10-17T23:07:59.802Z,14.93
2022-10-17T23:10:27.228Z,14.84
2022-10-17T23:12:54.564Z,14.85
2022-10-17T23:15:22.991Z,14.86
2022-10-17T23:17:50.645Z,14.89
2022-10-17T23:20:30.023Z,14.79
2022-10-17T23:23:01.183Z,14.73
2022-10-17T23:25:48.701Z,14.71
2022-10-17T23:28:50.965Z,14.81
2022-10-17T23:31:31.879Z,14.68
2022-10-17T23:34:19.826Z,14.80
2022-10-17T23:37:00.691Z,14.73
2022-10-17T23:39:47.778Z,14.72
2022-10-17T23:42:32.152Z,14.54
2022-10-17T23:45:00.267Z,14.55
2022-10-17T23:47:28.232Z,14.59
2022-10-17T23:49:58.913Z,14.38
2022-10-17T23:52:30.174Z,14.48
2022-10-17T23:55:21.821Z,14.56
2022-10-17T23:58:06.022Z,14.73
